Cherry Valley, California
Current Conditions -  °F | °C
As of 4:58 AM on Friday 19 Dec 2014 (Local Time) from KRIV Reporting Station
Clear Clear  
Wind Chill: 39°   Ceiling: Unl
Heat Index: 39°   Visibility: 10mi
Dew Point: 39°   Wind: 0mph
Humidity: 100%   Direction: NA
Pressure: 30.2"   Gusts: NA
Location:  33.9205°N, 116.973°W
Report Text: KRIV 191258Z AUTO 00000KT 10SM CLR 04/04 A3020 RMK AO2 SLP229 T00370037
Loading
Personal Weather Stations






























Interactive Weather Map New forecast layout! Learn more

10-Day Weather Forecast

Advertisements
Track Severe Weather on mobile